Upper Brookville, New York
Current Conditions -  °F | °C
As of 11:53 PM on Saturday 22 Nov 2014 (Local Time) from KFRG Reporting Station
Overcast Overcast  
Wind Chill: 39°   Ceiling: 12000
Heat Index: 44°   Visibility: 10mi
Dew Point: 23°   Wind: 10mph
Humidity: 43%   Direction: 240°WSW
Pressure: 30.22"   Gusts: 20mph
Location:  40.8471°N, 73.5334°W
Report Text: KFRG 230453Z AUTO 24009G17KT 10SM OVC120 07/M05 A3022 RMK AO2 SLP233 T00671050 400721056
Loading
Personal Weather Stations






























Interactive Weather Map New forecast layout! Learn more

10-Day Weather Forecast

Advertisements
Track Severe Weather on mobile